• Join FlightAware (Why Join?)
  • Login
  • US Flag 
03:13AM EDT


 

Airport Tracker/Info


-or-


 

Live Flight TrackerFlight Track Log ✈ TCF3494 ✈ 30-Apr-2013 ✈ KLGA - KORD

Flight Track Log - Related Links

Times and Time Zones

All times are in EDT time to prevent confusion due to time zone crossing. See the TCF3494 flight status page for this flight to view local times or setup timezone preferences in your user account.

Time Position Orientation Groundspeed Altitude Reporting Facility
EDT Latitude Longitude Course Direction KTS MPH feet Rate Location/Type
07:08PM 40.7500 -73.8500 90° East 145 167 1,500  Level New York TRACON
07:09PM 40.7500 -73.8000 90° East 210 242 3,300 2,160 Climbing New York TRACON
07:10PM 40.8167 -73.8167 349° North 245 282 5,900 1,380 Climbing New York TRACON
07:11PM 40.8833 -73.8500 339° North 271 312 6,100 480 Climbing New York TRACON
07:12PM 40.9333 -73.9333 308° West 278 320 6,900 1,380 Climbing New York TRACON
07:13PM 40.9833 -74.0167 308° West 283 326 8,900 2,340 Climbing New York TRACON
07:15PM 41.0622 -74.2606 293° West 328 377 14,800 2,100 Climbing New York Center
07:16PM 41.0817 -74.3744 283° West 356 410 16,000 540 Climbing New York Center
07:17PM 41.1064 -74.5189 283° West 365 420 16,000  Level New York Center
07:18PM 41.1275 -74.6331 284° West 360 414 16,100 840 Climbing New York Center
07:19PM 41.1689 -74.7675 292° West 360 414 17,700 1,680 Climbing New York Center
07:20PM 41.2192 -74.8836 300° West 365 420 19,500 1,980 Climbing New York Center
07:21PM 41.2750 -75.0114 300° West 378 435 21,700 2,040 Climbing New York Center
07:22PM 41.3267 -75.1361 299° West 384 442 23,700 1,860 Climbing New York Center
07:23PM 41.3842 -75.2669 300° West 389 448 25,400 1,680 Climbing New York Center
07:24PM 41.4397 -75.3981 300° West 400 460 27,100 1,500 Climbing New York Center
07:25PM 41.4906 -75.5344 296° West 411 473 28,500 1,320 Climbing New York Center
07:26PM 41.5289 -75.6672 291° West 411 473 29,800 1,560 Climbing New York Center
07:27PM 41.5722 -75.8258 290° West 418 481 31,700 1,500 Climbing New York Center
07:28PM 41.6139 -75.9650 292° West 418 481 32,900 1,080 Climbing New York Center
07:29PM 41.6536 -76.1069 291° West 418 481 33,900 540 Climbing New York Center
07:30PM 41.6928 -76.2489 290° West 418 481 34,000  Climbing New York Center
07:31PM 41.7339 -76.3942 291° West 418 481 34,000  Level New York Center
07:32PM 41.7694 -76.5222 290° West 412 474 34,000  Level New York Center
07:33PM 41.8086 -76.6619 291° West 412 474 34,000  Level New York Center
07:36PM 41.9022 -77.0064 290° West 409 471 34,000  Level Cleveland Center
07:37PM 41.9400 -77.1494 290° West 409 471 34,000  Level Cleveland Center
07:38PM 41.9797 -77.2925 291° West 403 464 34,000  Level Cleveland Center
07:39PM 42.0192 -77.4358 290° West 403 464 34,000  Level Cleveland Center
07:40PM 42.0561 -77.5767 290° West 403 464 34,000  Level Cleveland Center
07:41PM 42.0953 -77.7233 290° West 403 464 34,000  Level Cleveland Center
07:42PM 42.1322 -77.8644 289° West 403 464 34,000  Level Cleveland Center
07:43PM 42.1689 -78.0114 289° West 403 464 34,000  Level Cleveland Center
07:44PM 42.2075 -78.1556 290° West 403 464 34,000  Level Cleveland Center
07:45PM 42.2436 -78.2972 289° West 403 464 34,000  Level Cleveland Center
07:46PM 42.2819 -78.4389 290° West 403 464 34,000  Level Cleveland Center
07:47PM 42.3178 -78.5839 289° West 403 464 34,000  Level Cleveland Center
07:48PM 42.3558 -78.7289 290° West 403 464 34,000  Level Cleveland Center
07:49PM 42.3892 -78.8683 288° West 403 464 34,000  Level Cleveland Center
07:50PM 42.4267 -79.0136 289° West 403 464 34,000  Level Cleveland Center
07:51PM 42.4639 -79.1561 290° West 403 464 34,000  Level Cleveland Center
07:52PM 42.4928 -79.3047 285° West 403 464 34,000  Level Cleveland Center
07:53PM 42.5028 -79.4567 275° West 403 464 34,000  Level Cleveland Center
07:54PM 42.5103 -79.6086 274° West 408 470 34,000  Level Cleveland Center
07:55PM 42.5156 -79.7636 273° West 408 470 34,000  Level Cleveland Center
07:56PM 42.5250 -79.9156 275° West 408 470 34,000  Level Cleveland Center
07:57PM 42.5258 -80.0592 270° West 408 470 34,000  Level Cleveland Center
07:58PM 42.5325 -80.2114 273° West 408 470 34,000  Level Cleveland Center
07:59PM 42.5392 -80.3633 273° West 408 470 34,000  Level Cleveland Center
08:00PM 42.5456 -80.5239 273° West 408 470 34,000  Level Cleveland Center
08:01PM 42.5519 -80.6761 273° West 421 484 34,000  Level Cleveland Center
08:02PM 42.5578 -80.8342 273° West 421 484 34,000  Level Cleveland Center
08:03PM 42.5636 -81.0033 273° West 421 484 34,000  Level Cleveland Center
08:04PM 42.5714 -81.1611 274° West 421 484 34,000  Level Cleveland Center
08:05PM 42.5744 -81.3161 272° West 421 484 34,000  Level Cleveland Center
08:06PM 42.5839 -81.4714 275° West 415 478 34,000  Level Cleveland Center
08:07PM 42.6139 -81.6214 285° West 423 487 34,000  Level Cleveland Center
08:08PM 42.6394 -81.7686 283° West 415 478 34,000  Level Cleveland Center
08:09PM 42.6611 -81.9072 282° West 415 478 34,000  Level Cleveland Center
08:10PM 42.6883 -82.0575 284° West 415 478 34,000  Level Cleveland Center
08:11PM 42.7133 -82.2053 283° West 415 478 34,000  Level Cleveland Center
08:12PM 42.7300 -82.3611 278° West 415 478 34,000  Level Cleveland Center
08:13PM 42.7419 -82.5197 276° West 415 478 34,000  Level Cleveland Center
08:14PM 42.7558 -82.6728 277° West 420 483 34,000  Level Cleveland Center
08:15PM 42.7675 -82.8317 276° West 425 489 34,000  Level Cleveland Center
08:16PM 42.7767 -82.9931 274° West 425 489 34,000  Level Cleveland Center
08:17PM 42.7900 -83.1494 277° West 425 489 34,000  Level Cleveland Center
08:18PM 42.7969 -83.3081 273° West 425 489 34,000  Level Cleveland Center
08:19PM 42.8033 -83.4725 273° West 425 489 34,000 -300 Level Cleveland Center
08:20PM 42.8094 -83.6342 273° West 425 489 33,500 -540 Descending Cleveland Center
08:21PM 42.8156 -83.7986 273° West 430 495 33,000 -540 Descending Cleveland Center
08:22PM 42.8192 -83.9575 272° West 430 495 32,500 -540 Descending Cleveland Center
08:23PM 42.8250 -84.1192 273° West 425 489 32,000 -300 Descending Cleveland Center
08:24PM 42.8303 -84.2781 273° West 425 489 32,000  Level Cleveland Center
08:25PM 42.8353 -84.4425 272° West 425 489 32,000  Level Cleveland Center
08:26PM 42.8447 -84.7331 273° West 429 494 32,000  Level Chicago Center
08:27PM 42.8478 -84.8956 272° West 430 495 32,000  Level Chicago Center
08:28PM 42.8344 -85.0569 264° West 429 494 32,000  Level Chicago Center
08:30PM 42.8178 -85.2172 262° West 428 493 32,000  Level Chicago Center
08:31PM 42.8000 -85.3781 261° West 430 495 32,000 -900 Level Chicago Center
08:32PM 42.7794 -85.5400 260° West 431 496 30,200 -2,220 Descending Chicago Center
08:33PM 42.7439 -85.7322 256° West 433 498 27,500 -2,460 Descending Chicago Center
08:34PM 42.7158 -85.8894 256° West 429 494 25,200 -2,220 Descending Chicago Center
08:35PM 42.6881 -86.0422 256° West 419 482 23,000 -2,160 Descending Chicago Center
08:36PM 42.6608 -86.1919 256° West 410 472 20,800 -1,500 Descending Chicago Center
08:37PM 42.6333 -86.3353 255° West 398 458 20,000 -840 Descending Chicago Center
08:38PM 42.6058 -86.4803 256° West 396 456 19,100 -1,440 Descending Chicago Center
08:39PM 42.5797 -86.6197 256° West 381 438 17,100 -1,860 Descending Chicago Center
08:40PM 42.5556 -86.7533 256° West 370 426 15,300 -1,980 Descending Chicago Center
08:41PM 42.5153 -86.9011 250° West 354 407 13,100 -1,980 Descending Chicago Center
08:42PM 42.4828 -87.0189 250° West 342 394 11,300 -1,500 Descending Chicago Center
08:43PM 42.4497 -87.1289 248° West 321 369 10,000 -660 Descending Chicago Center
08:44PM 42.4200 -87.2400 250° West 319 367 10,000 -540 Level Chicago Center
08:45PM 42.3942 -87.3314 249° West 269 310 9,000 -720 Descending Chicago Center
08:46PM 42.3689 -87.4250 250° West 260 299 8,600 -600 Descending Chicago Center
08:47PM 42.3289 -87.5258 242° Southwest 264 304 7,800 -660 Descending Chicago Center
08:48PM 42.2764 -87.5844 220° Southwest 252 290 7,300 -600 Descending Chicago Center
08:49PM 42.2317 -87.6386 222° Southwest 228 262 6,600 -900 Descending Chicago Center
08:50PM 42.1881 -87.6861 219° Southwest 207 238 5,500 -1,080 Descending Chicago Center
08:51PM 42.1464 -87.7308 219° Southwest 198 228 4,400 -1,200 Descending Chicago Center
08:52PM 42.1167 -87.7667 222° Southwest 193 222 3,600 -1,080 Descending Chicago TRACON
08:53PM 42.0833 -87.8167 228° Southwest 170 196 2,700 -900 Descending Chicago TRACON
08:54PM 42.0500 -87.8500 217° Southwest 140 161 1,900 -840 Descending Chicago TRACON